Time;durP1;ratioP1;P1;durP2;ratioP2;P2;SDS_P1;SDS_P2;PMS_P1;PMS_P2;Temp;Humidity;BMP_temperature;BMP_pressure;BME280_temperature;BME280_humidity;BME280_pressure;Samples;Min_cycle;Max_cycle;Signal;HPM_P1;HPM_P2
2022/01/17 00:00:21;;;;;;;124.15;16.90;;;7.40;88.20;;;;;;5021323;28;20034;-84
2022/01/17 00:02:50;;;;;;;96.68;16.48;;;7.30;88.00;;;;;;5015058;28;20026;-84
2022/01/17 00:05:16;;;;;;;23.30;12.70;;;7.30;88.10;;;;;;5008056;28;20026;-84
2022/01/17 00:07:42;;;;;;;85.90;16.05;;;7.20;88.00;;;;;;4994266;28;20029;-84
2022/01/17 00:10:08;;;;;;;21.23;11.85;;;7.20;88.20;;;;;;5011280;28;20404;-84
2022/01/17 00:12:37;;;;;;;31.08;12.27;;;7.10;89.40;;;;;;5030537;28;20030;-84
2022/01/17 00:15:13;;;;;;;23.88;11.60;;;7.10;89.00;;;;;;5033504;28;20514;-84
2022/01/17 00:17:41;;;;;;;180.05;18.20;;;7.20;88.80;;;;;;5007045;28;20022;-84
2022/01/17 00:20:10;;;;;;;151.05;16.05;;;7.10;88.80;;;;;;4994963;28;20026;-84
2022/01/17 00:22:39;;;;;;;54.03;13.10;;;7.10;88.40;;;;;;5010469;28;20050;-85
2022/01/17 00:25:08;;;;;;;35.50;12.43;;;7.20;88.60;;;;;;4995596;28;20481;-84
2022/01/17 00:27:41;;;;;;;102.07;16.35;;;7.20;88.40;;;;;;5013669;28;20542;-84
2022/01/17 00:30:09;;;;;;;40.50;12.23;;;7.20;88.30;;;;;;5015305;28;20026;-84
2022/01/17 00:32:35;;;;;;;25.30;11.85;;;7.20;88.00;;;;;;5029931;28;20024;-84
2022/01/17 00:35:02;;;;;;;27.80;12.52;;;7.20;88.10;;;;;;5021201;28;20022;-83
2022/01/17 00:37:28;;;;;;;23.90;10.57;;;7.20;87.70;;;;;;5010114;28;20034;-84
2022/01/17 00:39:53;;;;;;;19.17;10.68;;;7.20;88.20;;;;;;4995122;28;20026;-84
2022/01/17 00:42:19;;;;;;;18.70;10.73;;;7.20;88.20;;;;;;5011252;28;20052;-85
2022/01/17 00:44:47;;;;;;;20.38;10.18;;;7.20;88.00;;;;;;5014992;28;20030;-84
2022/01/17 00:47:13;;;;;;;23.33;10.18;;;7.30;87.90;;;;;;5013143;28;20504;-85
2022/01/17 00:49:38;;;;;;;19.52;10.45;;;7.20;87.90;;;;;;5010139;28;20081;-84
2022/01/17 00:52:04;;;;;;;22.10;10.50;;;7.20;88.00;;;;;;4995029;28;20081;-84
2022/01/17 00:54:31;;;;;;;21.70;11.23;;;7.30;87.60;;;;;;5010035;28;20570;-84
2022/01/17 00:56:57;;;;;;;30.60;11.88;;;7.20;87.80;;;;;;4995040;28;20105;-84
2022/01/17 00:59:23;;;;;;;20.13;11.18;;;7.20;87.50;;;;;;4994748;28;20038;-84
2022/01/17 01:01:52;;;;;;;25.10;11.60;;;7.30;87.80;;;;;;5005984;28;20082;-84
2022/01/17 01:04:17;;;;;;;21.35;11.73;;;7.30;87.70;;;;;;5012413;28;20386;-84
2022/01/17 01:06:43;;;;;;;21.65;11.15;;;7.30;87.80;;;;;;5001174;28;20057;-85
2022/01/17 01:09:09;;;;;;;19.88;10.73;;;7.40;87.90;;;;;;5016886;28;20120;-84
2022/01/17 01:11:34;;;;;;;24.30;11.52;;;7.40;88.10;;;;;;5026071;28;20026;-84
2022/01/17 01:14:00;;;;;;;18.80;11.77;;;7.50;87.90;;;;;;5000491;28;20106;-84
2022/01/17 01:16:36;;;;;;;25.00;12.05;;;7.40;87.60;;;;;;4998578;28;20031;-83
2022/01/17 01:19:18;;;;;;;17.70;10.65;;;7.40;87.70;;;;;;4998217;28;20030;-82
2022/01/17 01:29:47;;;;;;;23.13;11.15;;;7.50;87.90;;;;;;5016211;28;20405;-84
2022/01/17 01:32:17;;;;;;;21.40;12.02;;;7.50;88.10;;;;;;5016766;28;20030;-84
2022/01/17 01:34:48;;;;;;;19.50;11.45;;;7.50;88.00;;;;;;5017891;28;20029;-84
2022/01/17 01:37:13;;;;;;;;;;;7.60;88.30;;;;;;5015974;28;20472;-84
2022/01/17 01:39:39;;;;;;;17.08;12.10;;;7.60;88.30;;;;;;4998067;28;19975;-85
2022/01/17 01:42:15;;;;;;;24.05;13.07;;;7.70;88.20;;;;;;5002462;28;20097;-84
2022/01/17 01:44:41;;;;;;;19.70;12.02;;;7.70;88.30;;;;;;5004687;28;20026;-84
2022/01/17 01:47:22;;;;;;;20.98;13.63;;;7.70;88.00;;;;;;5013103;28;20026;-85
2022/01/17 01:49:48;;;;;;;21.85;13.43;;;7.70;88.40;;;;;;4997374;28;20097;-84
2022/01/17 01:52:13;;;;;;;25.73;14.20;;;7.70;88.10;;;;;;4998010;28;20026;-84
2022/01/17 01:54:39;;;;;;;27.30;14.55;;;7.70;88.10;;;;;;4997914;28;20030;-84
2022/01/17 01:57:05;;;;;;;28.58;14.98;;;7.70;88.40;;;;;;4997804;28;20022;-83
2022/01/17 01:59:31;;;;;;;26.27;14.45;;;7.70;88.40;;;;;;4997574;28;20128;-84
2022/01/17 02:01:57;;;;;;;27.83;14.75;;;7.70;88.30;;;;;;4997587;28;20030;-84
2022/01/17 02:04:25;;;;;;;32.92;16.23;;;7.70;88.40;;;;;;4997419;28;20069;-83
2022/01/17 02:06:51;;;;;;;28.35;16.13;;;7.70;88.10;;;;;;5012730;28;20741;-83
2022/01/17 02:09:16;;;;;;;24.67;15.80;;;7.60;88.20;;;;;;4997240;28;20109;-84
2022/01/17 02:11:42;;;;;;;26.33;15.52;;;7.70;88.40;;;;;;5018239;28;20034;-83
2022/01/17 02:14:08;;;;;;;34.58;15.60;;;7.70;88.10;;;;;;5003989;28;20124;-84
2022/01/17 02:16:34;;;;;;;25.90;15.80;;;7.60;88.20;;;;;;4997643;28;20026;-84
2022/01/17 02:19:00;;;;;;;27.98;15.70;;;7.70;88.20;;;;;;4997246;28;20861;-84
2022/01/17 02:21:44;;;;;;;26.83;15.40;;;7.70;88.40;;;;;;4997400;28;20026;-83
2022/01/17 02:24:10;;;;;;;27.60;15.75;;;7.70;88.70;;;;;;5015139;28;20073;-84
2022/01/17 02:26:36;;;;;;;33.47;15.80;;;7.70;88.20;;;;;;5030451;28;20671;-83
2022/01/17 02:29:02;;;;;;;28.98;15.70;;;7.70;88.40;;;;;;4997542;28;20030;-84
2022/01/17 02:31:28;;;;;;;32.03;15.85;;;7.70;88.20;;;;;;5012144;28;20400;-84
2022/01/17 02:33:54;;;;;;;30.17;16.02;;;7.70;88.90;;;;;;4996719;28;20022;-84
2022/01/17 02:36:21;;;;;;;28.77;15.57;;;7.80;88.70;;;;;;5015907;28;20040;-83
2022/01/17 02:38:52;;;;;;;33.20;17.67;;;7.80;88.90;;;;;;5007366;28;20022;-83
2022/01/17 02:41:18;;;;;;;30.00;16.52;;;7.80;88.70;;;;;;4997286;28;20523;-83
2022/01/17 02:43:48;;;;;;;36.42;20.02;;;7.80;88.10;;;;;;5027664;28;20049;-83
2022/01/17 02:48:41;;;;;;;39.35;19.80;;;7.80;88.50;;;;;;5001816;28;20035;-83
2022/01/17 02:51:07;;;;;;;47.00;20.52;;;7.80;88.40;;;;;;4995416;28;20041;-83
2022/01/17 02:53:34;;;;;;;40.30;19.77;;;7.80;88.50;;;;;;4995517;28;20034;-83
2022/01/17 02:56:05;;;;;;;33.78;19.40;;;7.80;88.80;;;;;;5007047;28;20061;-83
2022/01/17 02:58:33;;;;;;;42.53;18.98;;;7.80;88.40;;;;;;5015785;28;20516;-84
2022/01/17 03:01:03;;;;;;;41.13;18.83;;;7.80;88.70;;;;;;5004679;28;20041;-83
2022/01/17 03:03:30;;;;;;;30.00;17.65;;;7.80;88.40;;;;;;5011794;28;20037;-84
2022/01/17 03:05:57;;;;;;;32.95;18.67;;;7.80;88.40;;;;;;4996158;28;20039;-83
2022/01/17 03:08:24;;;;;;;40.22;17.73;;;7.80;88.00;;;;;;4996687;28;20080;-83
2022/01/17 03:10:51;;;;;;;43.17;18.45;;;7.80;88.10;;;;;;5002820;28;20021;-83
2022/01/17 03:13:19;;;;;;;35.75;17.77;;;7.80;88.70;;;;;;4999589;28;20034;-83
2022/01/17 03:15:47;;;;;;;37.35;17.77;;;7.80;88.50;;;;;;4996233;28;20778;-83
2022/01/17 03:18:18;;;;;;;36.17;17.50;;;7.80;88.80;;;;;;4996098;28;20449;-83
2022/01/17 03:20:43;;;;;;;;;;;7.80;88.50;;;;;;4994945;28;20026;-83
2022/01/17 03:23:10;;;;;;;31.50;15.60;;;7.80;88.50;;;;;;4996140;28;19910;-83
2022/01/17 03:25:36;;;;;;;33.95;17.88;;;7.80;88.40;;;;;;5011299;28;20038;-83
2022/01/17 03:28:02;;;;;;;41.78;19.85;;;7.80;89.00;;;;;;4995746;28;20045;-82
2022/01/17 03:30:30;;;;;;;49.72;22.33;;;7.80;89.10;;;;;;4995404;28;20397;-83
2022/01/17 03:32:55;;;;;;;69.05;22.30;;;7.70;89.20;;;;;;4996096;28;20026;-83
2022/01/17 03:35:41;;;;;;;61.80;22.52;;;7.70;89.30;;;;;;5006927;28;20594;-83
2022/01/17 03:38:09;;;;;;;43.35;21.63;;;7.70;89.10;;;;;;5015656;28;20026;-83
2022/01/17 03:40:36;;;;;;;58.50;22.20;;;7.80;88.90;;;;;;4997871;28;20109;-83
2022/01/17 03:43:02;;;;;;;41.78;19.63;;;7.70;89.10;;;;;;5007773;28;20038;-83
2022/01/17 03:45:28;;;;;;;53.08;21.55;;;7.80;88.60;;;;;;5014228;28;20026;-83
2022/01/17 03:47:54;;;;;;;44.20;22.50;;;7.80;88.80;;;;;;5015112;28;20503;-83
2022/01/17 03:50:22;;;;;;;36.97;18.77;;;7.80;88.70;;;;;;4998315;28;20027;-84
2022/01/17 03:52:52;;;;;;;44.78;19.75;;;7.80;88.30;;;;;;4995781;28;20026;-83
2022/01/17 03:55:21;;;;;;;45.95;20.42;;;7.80;88.50;;;;;;5009658;28;20103;-83
2022/01/17 03:57:47;;;;;;;43.85;19.52;;;7.80;88.70;;;;;;4995462;28;20509;-83
2022/01/17 04:00:17;;;;;;;39.53;19.33;;;7.80;88.20;;;;;;4995785;28;20053;-83
2022/01/17 04:02:42;;;;;;;40.20;19.67;;;7.80;88.60;;;;;;5000887;28;20141;-83
2022/01/17 04:05:08;;;;;;;42.17;20.00;;;7.90;88.70;;;;;;4995487;28;20081;-82
2022/01/17 04:07:34;;;;;;;39.70;17.73;;;7.90;88.70;;;;;;5010452;28;20072;-83
2022/01/17 04:10:02;;;;;;;37.40;18.10;;;7.90;88.30;;;;;;4995412;28;20109;-83
2022/01/17 04:12:27;;;;;;;40.53;16.40;;;7.90;88.50;;;;;;5043941;28;20033;-83
2022/01/17 04:14:55;;;;;;;30.05;13.70;;;7.90;88.40;;;;;;5035143;28;20754;-83
2022/01/17 04:17:25;;;;;;;26.63;12.77;;;7.80;88.30;;;;;;4996478;28;20489;-83
2022/01/17 04:19:52;;;;;;;35.65;14.02;;;7.90;88.50;;;;;;4995401;28;20027;-83
2022/01/17 04:22:18;;;;;;;30.08;13.50;;;7.90;88.80;;;;;;4995855;28;20030;-83
2022/01/17 04:24:44;;;;;;;30.13;13.20;;;7.90;88.50;;;;;;4994224;28;20411;-82
2022/01/17 04:27:09;;;;;;;32.08;14.15;;;7.90;88.40;;;;;;4995639;28;20117;-83
2022/01/17 04:29:38;;;;;;;27.92;12.45;;;7.90;88.90;;;;;;4995203;28;20030;-83
2022/01/17 04:32:04;;;;;;;41.72;15.15;;;7.80;88.50;;;;;;4995434;28;20054;-83
2022/01/17 04:34:32;;;;;;;41.25;15.70;;;7.80;88.70;;;;;;4999110;28;20041;-83
2022/01/17 04:36:58;;;;;;;44.30;19.48;;;7.80;89.20;;;;;;5015120;28;20104;-83
2022/01/17 04:39:24;;;;;;;55.45;21.58;;;7.80;88.50;;;;;;5013836;28;20070;-83
2022/01/17 04:41:49;;;;;;;51.60;22.20;;;7.70;88.70;;;;;;4999770;28;20057;-83
2022/01/17 04:46:59;;;;;;;58.33;23.30;;;7.60;88.30;;;;;;4999337;28;20113;-83
2022/01/17 04:49:27;;;;;;;53.45;22.90;;;7.60;88.90;;;;;;4999032;28;20086;-83
2022/01/17 04:51:54;;;;;;;56.10;22.52;;;7.60;88.80;;;;;;4998718;28;20027;-82
2022/01/17 04:56:46;;;;;;;63.47;22.88;;;7.70;88.80;;;;;;4998967;28;20094;-83
2022/01/17 04:59:12;;;;;;;58.55;23.30;;;7.60;88.20;;;;;;5001211;28;20054;-82
2022/01/17 05:01:38;;;;;;;74.20;23.75;;;7.60;88.50;;;;;;5018415;28;20072;-83
2022/01/17 05:04:03;;;;;;;63.75;22.42;;;7.60;88.10;;;;;;5018480;28;20026;-83
2022/01/17 05:06:34;;;;;;;123.63;26.10;;;7.60;88.50;;;;;;5003911;28;20036;-83
2022/01/17 05:09:05;;;;;;;94.45;24.83;;;7.70;89.00;;;;;;5013672;28;20065;-82
2022/01/17 05:11:31;;;;;;;69.72;23.27;;;7.70;88.90;;;;;;5015852;28;20029;-83
2022/01/17 05:13:58;;;;;;;65.15;22.83;;;7.70;88.20;;;;;;5022055;28;20033;-83
2022/01/17 05:16:32;;;;;;;75.10;24.60;;;7.50;88.40;;;;;;4998320;28;20082;-83
2022/01/17 05:21:42;;;;;;;63.95;23.92;;;7.50;89.00;;;;;;4998635;28;20056;-83
2022/01/17 05:24:08;;;;;;;64.85;25.20;;;7.60;89.00;;;;;;4998251;28;20477;-83
2022/01/17 05:26:33;;;;;;;60.75;23.02;;;7.60;89.20;;;;;;4998342;28;20030;-83
2022/01/17 05:28:59;;;;;;;55.55;22.52;;;7.60;89.40;;;;;;5013251;28;20177;-83
2022/01/17 05:31:25;;;;;;;62.97;23.48;;;7.50;88.70;;;;;;4998181;28;20030;-83
2022/01/17 05:33:50;;;;;;;115.18;25.23;;;7.50;88.90;;;;;;4998159;28;20168;-83
2022/01/17 05:36:16;;;;;;;61.53;22.73;;;7.50;88.80;;;;;;5016254;28;20018;-83
2022/01/17 05:38:42;;;;;;;76.80;22.95;;;7.60;89.00;;;;;;5013493;28;20046;-83
2022/01/17 05:41:07;;;;;;;55.90;21.98;;;7.50;88.30;;;;;;4997890;28;20129;-82
2022/01/17 05:43:33;;;;;;;57.63;23.88;;;7.60;88.90;;;;;;5009908;28;20038;-82
2022/01/17 05:45:59;;;;;;;52.42;20.45;;;7.70;89.00;;;;;;4997980;28;20562;-86
2022/01/17 05:48:24;;;;;;;61.75;20.23;;;7.70;88.50;;;;;;4998157;28;20034;-82
2022/01/17 05:50:50;;;;;;;56.00;21.55;;;7.70;88.40;;;;;;4997806;28;20030;-80
2022/01/17 05:53:16;;;;;;;64.85;20.65;;;7.70;88.60;;;;;;4997448;28;20033;-80
2022/01/17 05:55:42;;;;;;;57.92;23.40;;;7.70;88.60;;;;;;5008610;28;20026;-85
2022/01/17 05:58:11;;;;;;;53.67;22.13;;;7.70;88.40;;;;;;5018362;28;20153;-85
2022/01/17 06:00:37;;;;;;;54.95;21.90;;;7.70;88.20;;;;;;5016895;28;20152;-88
2022/01/17 06:03:03;;;;;;;57.22;19.63;;;7.70;88.60;;;;;;5017238;28;20066;-89
2022/01/17 06:05:28;;;;;;;69.50;20.95;;;7.60;88.00;;;;;;5019002;28;20559;-90
2022/01/17 06:07:54;;;;;;;58.25;21.30;;;7.50;88.30;;;;;;5018103;28;20381;-82
2022/01/17 06:10:20;;;;;;;47.53;20.17;;;7.70;89.20;;;;;;5017657;28;20065;-86
2022/01/17 06:12:46;;;;;;;46.97;20.08;;;7.70;88.50;;;;;;5036393;28;20026;-91
2022/01/17 06:15:11;;;;;;;51.85;19.73;;;7.70;88.60;;;;;;5035726;28;20041;-77
2022/01/17 06:17:37;;;;;;;59.10;22.27;;;7.70;88.50;;;;;;5037528;28;20032;-84
2022/01/17 06:20:04;;;;;;;82.07;28.20;;;7.80;88.30;;;;;;5014600;28;20038;-81
2022/01/17 06:22:30;;;;;;;114.13;36.78;;;7.70;88.50;;;;;;5012716;28;20416;-84
2022/01/17 06:24:56;;;;;;;78.47;37.05;;;7.80;88.70;;;;;;5012516;28;20049;-77
2022/01/17 06:27:21;;;;;;;79.00;25.30;;;7.80;88.60;;;;;;5015009;28;20068;-79
2022/01/17 06:29:47;;;;;;;59.40;24.15;;;7.90;88.50;;;;;;5014560;28;20026;-79
2022/01/17 06:32:18;;;;;;;67.18;24.60;;;7.90;88.30;;;;;;5015475;28;20504;-80
2022/01/17 06:34:44;;;;;;;59.47;20.42;;;7.90;88.20;;;;;;5010984;28;20101;-79
2022/01/17 06:37:10;;;;;;;79.38;23.48;;;7.90;88.20;;;;;;5014746;28;20057;-79
2022/01/17 06:39:35;;;;;;;78.65;24.40;;;7.90;88.50;;;;;;5014508;28;20096;-77
2022/01/17 06:42:01;;;;;;;67.70;22.70;;;8.00;88.40;;;;;;5000427;28;20018;-77
2022/01/17 06:44:27;;;;;;;70.50;22.73;;;8.00;88.30;;;;;;5011405;28;20113;-77
2022/01/17 06:46:53;;;;;;;66.55;21.67;;;8.00;88.00;;;;;;5011832;28;20037;-77
2022/01/17 06:49:20;;;;;;;64.82;20.63;;;8.00;88.30;;;;;;4996080;28;20080;-76
2022/01/17 06:51:46;;;;;;;66.28;21.63;;;8.00;88.20;;;;;;5016751;28;20102;-76
2022/01/17 06:54:12;;;;;;;69.25;21.45;;;8.00;88.40;;;;;;5010689;28;20488;-79
2022/01/17 06:56:43;;;;;;;83.18;22.23;;;8.00;88.40;;;;;;5016134;28;20395;-81
2022/01/17 06:59:10;;;;;;;69.20;21.40;;;8.00;88.50;;;;;;5016226;28;20098;-80
2022/01/17 07:01:38;;;;;;;64.07;21.33;;;8.10;88.60;;;;;;5016120;28;20041;-79
2022/01/17 07:04:04;;;;;;;68.80;19.92;;;8.10;88.60;;;;;;4993876;28;20033;-79
2022/01/17 07:06:30;;;;;;;72.30;21.10;;;8.10;88.40;;;;;;4995012;28;20034;-76
2022/01/17 07:08:56;;;;;;;75.43;20.95;;;8.10;88.60;;;;;;4995879;28;20057;-76
2022/01/17 07:11:22;;;;;;;71.82;21.38;;;8.10;88.60;;;;;;5004212;28;20038;-76
2022/01/17 07:13:48;;;;;;;79.13;23.25;;;8.10;88.60;;;;;;4996172;28;20027;-76
2022/01/17 07:16:14;;;;;;;98.60;26.55;;;8.10;88.60;;;;;;4996087;28;20065;-76
2022/01/17 07:18:39;;;;;;;79.38;25.13;;;8.10;88.70;;;;;;4995933;28;20030;-75
2022/01/17 07:21:06;;;;;;;114.68;32.22;;;8.10;88.60;;;;;;4995913;28;20030;-76
2022/01/17 07:23:32;;;;;;;119.63;32.78;;;8.10;88.90;;;;;;4995666;28;20022;-75
2022/01/17 07:25:57;;;;;;;118.28;32.67;;;8.20;88.90;;;;;;4995852;28;20030;-76
2022/01/17 07:28:23;;;;;;;100.07;30.38;;;8.20;88.90;;;;;;4995657;28;20110;-76
2022/01/17 07:30:49;;;;;;;99.40;28.25;;;8.20;88.20;;;;;;5010797;28;20070;-76
2022/01/17 07:33:14;;;;;;;92.47;26.92;;;8.10;87.90;;;;;;4995577;28;20452;-76
2022/01/17 07:35:40;;;;;;;109.05;36.00;;;8.00;88.20;;;;;;5009292;28;20104;-77
2022/01/17 07:38:07;;;;;;;119.65;33.70;;;8.00;88.10;;;;;;5015125;28;20030;-76
2022/01/17 07:40:35;;;;;;;149.30;43.03;;;8.00;88.50;;;;;;5015385;28;20022;-76
2022/01/17 07:43:00;;;;;;;383.08;113.65;;;8.10;88.60;;;;;;5013392;28;20037;-79
2022/01/17 07:45:27;;;;;;;141.23;42.15;;;8.10;88.30;;;;;;5015240;28;20022;-76
2022/01/17 07:50:22;;;;;;;147.88;45.38;;;8.10;88.40;;;;;;4995665;28;20561;-76
2022/01/17 07:52:48;;;;;;;75.07;26.10;;;8.20;88.50;;;;;;4995587;28;20059;-76
2022/01/17 07:55:15;;;;;;;91.13;27.92;;;8.20;88.20;;;;;;4995591;28;20031;-77
2022/01/17 07:57:42;;;;;;;75.00;26.48;;;8.10;88.10;;;;;;4995223;28;20042;-76
2022/01/17 08:00:11;;;;;;;76.93;26.05;;;8.20;88.40;;;;;;4995597;28;20037;-76
2022/01/17 08:02:37;;;;;;;71.72;23.95;;;8.20;88.60;;;;;;4995034;28;20033;-79
2022/01/17 08:05:03;;;;;;;78.47;23.65;;;8.20;88.40;;;;;;5010509;28;20034;-76
2022/01/17 08:07:30;;;;;;;56.17;20.02;;;8.20;88.60;;;;;;4995137;28;20607;-78
2022/01/17 08:09:56;;;;;;;73.20;23.10;;;8.30;88.20;;;;;;5010123;28;20070;-76
2022/01/17 08:12:21;;;;;;;70.15;23.90;;;8.20;88.20;;;;;;5026259;28;20369;-79
2022/01/17 08:14:47;;;;;;;65.70;24.00;;;8.30;88.50;;;;;;5034665;28;20033;-77
2022/01/17 08:17:13;;;;;;;65.22;24.73;;;8.30;88.40;;;;;;5037282;28;20105;-76
2022/01/17 08:19:38;;;;;;;82.55;23.35;;;8.30;88.30;;;;;;5014127;28;20038;-76
2022/01/17 08:22:06;;;;;;;74.30;24.00;;;8.40;88.20;;;;;;4999200;28;20457;-76
2022/01/17 08:24:33;;;;;;;70.47;29.10;;;8.20;87.60;;;;;;5013615;28;20038;-79
2022/01/17 08:27:00;;;;;;;69.28;22.92;;;8.20;88.70;;;;;;5013991;28;20133;-78
2022/01/17 08:29:26;;;;;;;65.80;25.33;;;8.30;88.50;;;;;;5012528;28;20117;-76
2022/01/17 08:31:53;;;;;;;72.07;24.88;;;8.30;88.60;;;;;;4999082;28;20092;-77
2022/01/17 08:34:19;;;;;;;71.72;23.23;;;8.30;88.00;;;;;;5001512;28;20149;-76
2022/01/17 08:36:45;;;;;;;54.35;21.00;;;8.30;88.70;;;;;;5013118;28;20049;-76
2022/01/17 08:39:13;;;;;;;66.55;26.10;;;8.40;88.30;;;;;;4998572;28;20049;-76
2022/01/17 08:41:43;;;;;;;64.80;26.30;;;8.30;88.10;;;;;;4999353;28;20030;-79
2022/01/17 08:44:10;;;;;;;70.95;24.35;;;8.30;88.40;;;;;;5016869;28;20061;-76
2022/01/17 08:46:35;;;;;;;37.88;16.80;;;8.40;88.50;;;;;;4998949;28;20033;-76
2022/01/17 08:49:01;;;;;;;43.42;15.85;;;8.40;88.50;;;;;;4998599;28;20030;-76
2022/01/17 08:51:27;;;;;;;49.67;17.85;;;8.40;88.30;;;;;;4998484;28;20088;-76
2022/01/17 08:53:52;;;;;;;37.45;16.48;;;8.40;88.00;;;;;;4998207;28;20041;-76
2022/01/17 08:56:18;;;;;;;49.35;17.83;;;8.50;88.20;;;;;;4998872;28;20037;-79
2022/01/17 08:58:44;;;;;;;56.80;19.88;;;8.50;88.30;;;;;;4998255;28;20046;-76
2022/01/17 09:01:13;;;;;;;56.20;22.23;;;8.30;88.10;;;;;;4998629;28;20033;-77
2022/01/17 09:03:42;;;;;;;85.57;25.80;;;8.40;88.40;;;;;;4998327;28;20030;-77
2022/01/17 09:06:08;;;;;;;82.88;27.48;;;8.40;88.50;;;;;;4998408;28;20109;-79
2022/01/17 09:08:33;;;;;;;70.43;22.95;;;8.50;88.60;;;;;;4998058;28;20093;-76
2022/01/17 09:10:59;;;;;;;65.45;22.05;;;8.60;88.50;;;;;;5007294;28;20024;-79
2022/01/17 09:13:26;;;;;;;51.88;17.20;;;8.70;88.30;;;;;;5037506;28;20018;-77
2022/01/17 09:15:53;;;;;;;54.90;16.83;;;8.70;88.00;;;;;;5036309;28;20483;-76
2022/01/17 09:18:20;;;;;;;42.90;13.90;;;8.80;88.00;;;;;;5010873;28;20040;-76
2022/01/17 09:20:47;;;;;;;34.60;11.43;;;8.80;87.60;;;;;;4998069;28;20153;-76
2022/01/17 09:23:13;;;;;;;28.85;9.85;;;8.80;87.40;;;;;;4998330;28;20030;-77
2022/01/17 09:25:38;;;;;;;32.17;10.27;;;8.90;87.70;;;;;;4997938;28;20114;-76
2022/01/17 09:28:04;;;;;;;30.90;9.02;;;8.90;87.20;;;;;;4996218;28;20508;-77
2022/01/17 09:30:30;;;;;;;31.65;9.32;;;8.90;87.10;;;;;;4995752;28;20034;-79
2022/01/17 09:32:56;;;;;;;22.33;8.45;;;8.90;87.50;;;;;;4998088;28;20027;-79
2022/01/17 09:35:22;;;;;;;27.85;9.35;;;9.00;87.50;;;;;;5009061;28;20097;-76
2022/01/17 09:37:49;;;;;;;33.13;11.35;;;9.00;87.20;;;;;;5017586;28;20021;-76
2022/01/17 09:40:15;;;;;;;34.03;9.85;;;9.00;87.50;;;;;;5012568;28;20125;-76
2022/01/17 09:42:41;;;;;;;28.23;8.93;;;8.90;86.70;;;;;;5006633;28;20064;-76
2022/01/17 09:45:10;;;;;;;30.92;9.70;;;8.90;87.10;;;;;;5002866;28;20465;-76
2022/01/17 09:47:37;;;;;;;31.35;8.90;;;9.00;87.70;;;;;;4997926;28;20400;-79
2022/01/17 09:50:13;;;;;;;29.25;9.27;;;9.10;87.40;;;;;;4997008;28;20046;-77
2022/01/17 09:52:43;;;;;;;28.50;7.90;;;9.20;87.50;;;;;;4996434;28;20572;-77
2022/01/17 09:55:15;;;;;;;27.48;8.50;;;9.20;86.80;;;;;;4996157;28;20132;-77
2022/01/17 09:57:48;;;;;;;27.55;7.93;;;9.30;87.10;;;;;;4996644;28;20050;-77
2022/01/17 10:00:16;;;;;;;23.00;7.13;;;9.30;87.10;;;;;;5031964;28;20357;-77
2022/01/17 10:02:42;;;;;;;30.25;8.13;;;9.40;86.70;;;;;;5017164;28;20018;-76
2022/01/17 10:05:10;;;;;;;29.35;8.95;;;9.50;86.70;;;;;;5013714;28;20493;-77
2022/01/17 10:07:55;;;;;;;36.33;8.25;;;9.50;86.70;;;;;;4996902;28;20026;-77
2022/01/17 10:10:39;;;;;;;30.88;8.25;;;9.50;86.60;;;;;;5003272;28;20026;-77
2022/01/17 10:13:13;;;;;;;27.90;8.68;;;9.60;86.60;;;;;;4997469;28;20027;-77
2022/01/17 10:15:54;;;;;;;22.90;7.60;;;9.60;86.20;;;;;;4997187;28;20053;-77
2022/01/17 10:18:37;;;;;;;22.50;6.95;;;9.70;86.20;;;;;;4996830;28;20076;-77
2022/01/17 10:21:18;;;;;;;29.33;7.05;;;9.70;86.20;;;;;;5012312;28;20026;-77
2022/01/17 10:35:19;;;;;;;16.98;6.30;;;9.80;85.60;;;;;;5004519;28;20021;-77
2022/01/17 10:37:57;;;;;;;16.08;6.85;;;9.80;85.90;;;;;;5015603;28;20033;-77
2022/01/17 10:40:24;;;;;;;14.20;6.00;;;9.90;86.00;;;;;;5009659;28;20041;-76
2022/01/17 10:42:50;;;;;;;13.10;5.10;;;9.90;85.70;;;;;;5022104;28;20034;-77
2022/01/17 10:45:41;;;;;;;12.25;5.68;;;9.90;84.90;;;;;;5013770;28;20029;-77
2022/01/17 10:48:08;;;;;;;11.10;5.20;;;10.00;85.00;;;;;;4990939;28;20045;-77
2022/01/17 10:50:42;;;;;;;12.27;6.63;;;10.00;83.80;;;;;;4996495;28;20065;-77
2022/01/17 10:53:11;;;;;;;12.55;7.53;;;10.10;85.00;;;;;;4996526;28;20030;-77
2022/01/17 10:55:42;;;;;;;11.45;5.30;;;10.10;84.90;;;;;;4996217;28;20025;-77
2022/01/17 10:58:11;;;;;;;9.15;4.97;;;10.10;85.00;;;;;;4996379;28;20046;-76
2022/01/17 11:00:47;;;;;;;10.48;4.55;;;10.10;84.30;;;;;;4995845;28;20561;-77
2022/01/17 11:03:15;;;;;;;14.18;5.90;;;10.20;85.10;;;;;;5010528;28;20030;-77
2022/01/17 11:05:46;;;;;;;11.32;5.93;;;10.20;84.70;;;;;;5010930;28;20018;-77
2022/01/17 11:08:12;;;;;;;;;;;10.20;85.10;;;;;;4996870;28;20030;-77
2022/01/17 11:10:50;;;;;;;9.18;4.28;;;10.30;85.00;;;;;;4998787;28;19960;-77
2022/01/17 11:13:18;;;;;;;8.52;5.22;;;10.30;83.40;;;;;;4996216;28;20026;-78
2022/01/17 11:15:47;;;;;;;8.10;5.60;;;10.30;84.40;;;;;;4996338;28;20388;-75
2022/01/17 11:18:18;;;;;;;11.82;5.60;;;10.40;84.40;;;;;;4996241;28;20038;-75
2022/01/17 11:20:45;;;;;;;9.27;4.82;;;10.50;84.00;;;;;;4995810;28;20092;-75
2022/01/17 11:23:12;;;;;;;10.63;5.78;;;10.60;82.70;;;;;;4994749;28;20022;-77
2022/01/17 11:25:44;;;;;;;12.50;6.28;;;10.70;84.10;;;;;;4996158;28;20054;-75
2022/01/17 11:28:14;;;;;;;9.95;5.95;;;10.80;83.90;;;;;;5006734;28;20030;-74
2022/01/17 11:30:40;;;;;;;13.68;6.35;;;10.70;83.30;;;;;;5015587;28;20022;-74
2022/01/17 11:33:09;;;;;;;13.15;6.70;;;10.60;83.50;;;;;;5014197;28;20790;-75
2022/01/17 11:35:38;;;;;;;9.82;5.82;;;10.50;83.80;;;;;;5012014;28;20057;-74
2022/01/17 11:38:05;;;;;;;11.05;6.70;;;10.50;84.60;;;;;;5015656;28;20018;-76
2022/01/17 11:40:36;;;;;;;12.98;6.47;;;10.70;84.20;;;;;;5013598;28;20164;-76
2022/01/17 11:43:24;;;;;;;11.10;6.70;;;10.70;84.00;;;;;;5009490;28;20030;-76
2022/01/17 11:45:53;;;;;;;10.73;6.25;;;10.70;83.20;;;;;;4995561;28;20022;-76
2022/01/17 11:48:22;;;;;;;13.75;7.00;;;10.70;83.70;;;;;;4995690;28;20519;-76
2022/01/17 11:50:49;;;;;;;13.73;7.68;;;10.70;83.50;;;;;;4995230;28;20022;-77
2022/01/17 11:53:15;;;;;;;9.32;6.40;;;10.60;83.70;;;;;;5010120;28;20026;-77
2022/01/17 11:55:43;;;;;;;16.48;7.57;;;10.70;83.60;;;;;;4995327;28;20076;-76
2022/01/17 11:58:30;;;;;;;11.80;6.82;;;10.70;83.70;;;;;;4994934;28;20512;-77
2022/01/17 12:00:57;;;;;;;15.52;7.03;;;10.80;83.80;;;;;;4995600;28;20055;-77
2022/01/17 12:03:29;;;;;;;12.07;6.80;;;10.70;83.10;;;;;;4995308;28;20034;-77
2022/01/17 12:06:02;;;;;;;12.05;6.70;;;10.80;83.30;;;;;;4995340;28;20055;-75
2022/01/17 12:08:29;;;;;;;14.30;7.60;;;10.70;83.40;;;;;;4995264;28;20097;-76
2022/01/17 12:11:03;;;;;;;27.30;16.77;;;10.80;84.20;;;;;;5003018;28;20108;-78
2022/01/17 12:13:38;;;;;;;23.50;13.70;;;10.80;84.00;;;;;;5014685;28;20057;-80
2022/01/17 12:16:19;;;;;;;12.35;7.47;;;10.90;83.40;;;;;;5014817;28;20578;-77
2022/01/17 12:18:54;;;;;;;12.50;6.72;;;10.90;82.70;;;;;;5001824;28;20665;-77
2022/01/17 12:21:32;;;;;;;11.18;6.55;;;10.80;82.80;;;;;;4995271;28;20113;-78
2022/01/17 12:24:17;;;;;;;12.00;7.00;;;10.80;82.70;;;;;;4995145;28;20037;-79
2022/01/17 12:26:54;;;;;;;9.00;5.82;;;10.80;82.80;;;;;;4995457;28;20117;-76
2022/01/17 12:29:42;;;;;;;14.18;10.02;;;10.80;83.60;;;;;;4995150;28;20065;-77
2022/01/17 12:32:26;;;;;;;9.43;5.88;;;10.80;83.20;;;;;;4995045;28;20366;-78
2022/01/17 12:35:09;;;;;;;10.52;6.28;;;11.00;83.10;;;;;;5002199;28;20018;-78
2022/01/17 12:37:41;;;;;;;13.18;8.30;;;11.10;83.60;;;;;;5002809;28;20570;-76
2022/01/17 12:40:11;;;;;;;9.65;5.93;;;11.20;83.20;;;;;;5010966;28;20108;-76
2022/01/17 12:43:08;;;;;;;9.05;5.82;;;11.20;82.10;;;;;;5003676;28;20125;-75
2022/01/17 12:45:37;;;;;;;9.00;6.10;;;11.20;82.00;;;;;;4997865;28;20034;-76
2022/01/17 12:48:06;;;;;;;12.17;6.10;;;11.30;82.70;;;;;;4995207;28;20045;-75
2022/01/17 12:50:34;;;;;;;7.73;5.83;;;11.30;82.20;;;;;;4994899;28;20609;-76
2022/01/17 12:53:01;;;;;;;12.25;6.60;;;11.40;82.10;;;;;;4994856;28;20652;-76
2022/01/17 12:55:37;;;;;;;12.07;6.25;;;11.50;82.00;;;;;;4995192;28;20046;-76
2022/01/17 12:58:27;;;;;;;10.45;5.82;;;11.50;81.70;;;;;;4994949;28;20068;-75
2022/01/17 13:01:01;;;;;;;12.48;6.05;;;11.50;81.20;;;;;;4994785;28;20038;-75
2022/01/17 13:03:32;;;;;;;9.57;5.80;;;11.50;81.40;;;;;;4996822;28;20147;-76
2022/01/17 13:05:59;;;;;;;10.15;5.25;;;11.50;81.30;;;;;;4998553;28;20101;-76
2022/01/17 13:08:25;;;;;;;15.52;6.35;;;11.70;80.80;;;;;;4998133;28;20034;-76
2022/01/17 13:10:52;;;;;;;10.27;5.15;;;11.70;80.00;;;;;;5005407;28;20036;-77
2022/01/17 13:13:18;;;;;;;12.95;9.10;;;11.70;80.50;;;;;;5036634;28;20025;-77
2022/01/17 13:15:59;;;;;;;14.15;9.80;;;11.70;79.80;;;;;;4998426;28;20018;-76